sensor_id;sensor_type;location;lat;lon;timestamp;temperature;humidity
74368;DHT22;64991;41.090;-8.118;2023-06-14T00:04:08;23.40;84.80
74368;DHT22;64991;41.090;-8.118;2023-06-14T00:09:13;23.40;84.70
74368;DHT22;64991;41.090;-8.118;2023-06-14T00:14:19;23.40;85.00
74368;DHT22;64991;41.090;-8.118;2023-06-14T00:19:22;23.40;84.70
74368;DHT22;64991;41.090;-8.118;2023-06-14T00:24:45;23.40;84.70
74368;DHT22;64991;41.090;-8.118;2023-06-14T00:29:48;23.40;84.70
74368;DHT22;64991;41.090;-8.118;2023-06-14T00:34:52;23.40;85.00
74368;DHT22;64991;41.090;-8.118;2023-06-14T00:39:57;23.40;84.70
74368;DHT22;64991;41.090;-8.118;2023-06-14T00:45:00;23.40;84.70
74368;DHT22;64991;41.090;-8.118;2023-06-14T00:50:05;23.40;85.00
74368;DHT22;64991;41.090;-8.118;2023-06-14T00:55:11;23.40;84.80
74368;DHT22;64991;41.090;-8.118;2023-06-14T01:00:15;23.50;84.80
74368;DHT22;64991;41.090;-8.118;2023-06-14T01:05:19;23.40;84.60
74368;DHT22;64991;41.090;-8.118;2023-06-14T01:10:29;23.40;84.80
74368;DHT22;64991;41.090;-8.118;2023-06-14T01:15:35;23.40;84.80
74368;DHT22;64991;41.090;-8.118;2023-06-14T01:20:39;23.50;84.90
74368;DHT22;64991;41.090;-8.118;2023-06-14T01:25:44;23.50;85.00
74368;DHT22;64991;41.090;-8.118;2023-06-14T01:30:49;23.40;84.80
74368;DHT22;64991;41.090;-8.118;2023-06-14T01:35:53;23.40;84.70
74368;DHT22;64991;41.090;-8.118;2023-06-14T01:40:59;23.40;84.90
74368;DHT22;64991;41.090;-8.118;2023-06-14T01:46:04;23.40;84.90
74368;DHT22;64991;41.090;-8.118;2023-06-14T01:51:08;23.40;85.00
74368;DHT22;64991;41.090;-8.118;2023-06-14T01:56:13;23.40;84.80
74368;DHT22;64991;41.090;-8.118;2023-06-14T02:01:17;23.40;84.90
74368;DHT22;64991;41.090;-8.118;2023-06-14T02:06:20;23.40;85.00
74368;DHT22;64991;41.090;-8.118;2023-06-14T02:11:25;23.40;84.90
74368;DHT22;64991;41.090;-8.118;2023-06-14T02:16:29;23.40;84.90
74368;DHT22;64991;41.090;-8.118;2023-06-14T02:21:34;23.40;84.90
74368;DHT22;64991;41.090;-8.118;2023-06-14T02:26:39;23.40;84.90
74368;DHT22;64991;41.090;-8.118;2023-06-14T02:31:44;23.40;85.10
74368;DHT22;64991;41.090;-8.118;2023-06-14T02:36:48;23.40;85.10
74368;DHT22;64991;41.090;-8.118;2023-06-14T02:42:13;23.40;85.00
74368;DHT22;64991;41.090;-8.118;2023-06-14T02:47:16;23.30;84.90
74368;DHT22;64991;41.090;-8.118;2023-06-14T02:52:20;23.40;85.10
74368;DHT22;64991;41.090;-8.118;2023-06-14T02:57:25;23.40;85.10
74368;DHT22;64991;41.090;-8.118;2023-06-14T03:02:28;23.30;84.90
74368;DHT22;64991;41.090;-8.118;2023-06-14T03:07:32;23.30;85.10
74368;DHT22;64991;41.090;-8.118;2023-06-14T03:12:37;23.30;84.90
74368;DHT22;64991;41.090;-8.118;2023-06-14T03:17:41;23.40;84.90
74368;DHT22;64991;41.090;-8.118;2023-06-14T03:22:47;23.30;84.80
74368;DHT22;64991;41.090;-8.118;2023-06-14T03:27:52;23.40;85.10
74368;DHT22;64991;41.090;-8.118;2023-06-14T03:32:56;23.40;85.00
74368;DHT22;64991;41.090;-8.118;2023-06-14T03:38:02;23.40;84.90
74368;DHT22;64991;41.090;-8.118;2023-06-14T03:43:07;23.30;85.10
74368;DHT22;64991;41.090;-8.118;2023-06-14T03:48:11;23.30;85.10
74368;DHT22;64991;41.090;-8.118;2023-06-14T03:53:14;23.40;84.90
74368;DHT22;64991;41.090;-8.118;2023-06-14T03:58:20;23.30;84.90
74368;DHT22;64991;41.090;-8.118;2023-06-14T04:03:23;23.30;85.10
74368;DHT22;64991;41.090;-8.118;2023-06-14T04:08:31;23.30;85.10
74368;DHT22;64991;41.090;-8.118;2023-06-14T04:13:37;23.30;84.90
74368;DHT22;64991;41.090;-8.118;2023-06-14T04:18:41;23.30;85.20
74368;DHT22;64991;41.090;-8.118;2023-06-14T04:23:44;23.40;84.90
74368;DHT22;64991;41.090;-8.118;2023-06-14T04:28:49;23.30;85.20
74368;DHT22;64991;41.090;-8.118;2023-06-14T04:33:53;23.30;85.00
74368;DHT22;64991;41.090;-8.118;2023-06-14T04:38:56;23.30;84.90
74368;DHT22;64991;41.090;-8.118;2023-06-14T04:44:02;23.30;84.80
74368;DHT22;64991;41.090;-8.118;2023-06-14T04:49:22;23.40;85.00
74368;DHT22;64991;41.090;-8.118;2023-06-14T04:54:28;23.30;85.00
74368;DHT22;64991;41.090;-8.118;2023-06-14T04:59:34;23.30;84.90
74368;DHT22;64991;41.090;-8.118;2023-06-14T05:04:38;23.30;85.20
74368;DHT22;64991;41.090;-8.118;2023-06-14T05:09:42;23.30;85.20
74368;DHT22;64991;41.090;-8.118;2023-06-14T05:14:47;23.40;85.30
74368;DHT22;64991;41.090;-8.118;2023-06-14T05:19:50;23.40;85.10
74368;DHT22;64991;41.090;-8.118;2023-06-14T05:24:54;23.30;85.20
74368;DHT22;64991;41.090;-8.118;2023-06-14T05:29:59;23.30;84.90
74368;DHT22;64991;41.090;-8.118;2023-06-14T05:35:02;23.30;84.90
74368;DHT22;64991;41.090;-8.118;2023-06-14T05:40:08;23.30;85.20
74368;DHT22;64991;41.090;-8.118;2023-06-14T05:45:13;23.30;85.00
74368;DHT22;64991;41.090;-8.118;2023-06-14T05:50:18;23.30;84.90
74368;DHT22;64991;41.090;-8.118;2023-06-14T05:55:21;23.30;85.10
74368;DHT22;64991;41.090;-8.118;2023-06-14T06:00:26;23.40;84.90
74368;DHT22;64991;41.090;-8.118;2023-06-14T06:05:29;23.30;84.80
74368;DHT22;64991;41.090;-8.118;2023-06-14T06:10:33;23.20;85.00
74368;DHT22;64991;41.090;-8.118;2023-06-14T06:15:38;23.30;84.90
74368;DHT22;64991;41.090;-8.118;2023-06-14T06:20:41;23.30;84.80
74368;DHT22;64991;41.090;-8.118;2023-06-14T06:25:46;23.30;85.00
74368;DHT22;64991;41.090;-8.118;2023-06-14T06:30:50;23.20;84.90
74368;DHT22;64991;41.090;-8.118;2023-06-14T06:35:55;23.30;84.90
74368;DHT22;64991;41.090;-8.118;2023-06-14T06:40:58;23.30;84.80
74368;DHT22;64991;41.090;-8.118;2023-06-14T06:46:03;23.40;84.90
74368;DHT22;64991;41.090;-8.118;2023-06-14T06:51:07;23.30;84.80
74368;DHT22;64991;41.090;-8.118;2023-06-14T06:56:10;23.30;84.80
74368;DHT22;64991;41.090;-8.118;2023-06-14T07:01:15;23.30;84.90
74368;DHT22;64991;41.090;-8.118;2023-06-14T07:06:19;23.30;84.80
74368;DHT22;64991;41.090;-8.118;2023-06-14T07:11:22;23.20;84.80
74368;DHT22;64991;41.090;-8.118;2023-06-14T07:16:27;23.30;85.20
74368;DHT22;64991;41.090;-8.118;2023-06-14T07:21:31;23.30;84.80
74368;DHT22;64991;41.090;-8.118;2023-06-14T07:26:34;23.30;85.20
74368;DHT22;64991;41.090;-8.118;2023-06-14T07:31:39;23.30;85.00
74368;DHT22;64991;41.090;-8.118;2023-06-14T07:36:43;23.30;84.90
74368;DHT22;64991;41.090;-8.118;2023-06-14T07:41:47;23.30;85.00
74368;DHT22;64991;41.090;-8.118;2023-06-14T07:46:52;23.30;85.00
74368;DHT22;64991;41.090;-8.118;2023-06-14T07:51:55;23.30;85.20
74368;DHT22;64991;41.090;-8.118;2023-06-14T07:56:59;23.20;85.00
74368;DHT22;64991;41.090;-8.118;2023-06-14T08:02:04;23.30;85.20
74368;DHT22;64991;41.090;-8.118;2023-06-14T08:07:08;23.20;85.60
74368;DHT22;64991;41.090;-8.118;2023-06-14T08:12:11;23.30;85.50
74368;DHT22;64991;41.090;-8.118;2023-06-14T08:17:16;23.40;85.30
74368;DHT22;64991;41.090;-8.118;2023-06-14T08:22:20;23.30;85.30
74368;DHT22;64991;41.090;-8.118;2023-06-14T08:27:23;23.30;85.40
74368;DHT22;64991;41.090;-8.118;2023-06-14T08:32:31;23.30;85.20
74368;DHT22;64991;41.090;-8.118;2023-06-14T08:37:37;23.30;85.50
74368;DHT22;64991;41.090;-8.118;2023-06-14T08:42:42;23.30;85.50
74368;DHT22;64991;41.090;-8.118;2023-06-14T08:47:47;23.30;85.40
74368;DHT22;64991;41.090;-8.118;2023-06-14T08:52:54;23.40;85.70
74368;DHT22;64991;41.090;-8.118;2023-06-14T08:58:02;23.30;85.60
74368;DHT22;64991;41.090;-8.118;2023-06-14T09:03:08;23.40;85.80
74368;DHT22;64991;41.090;-8.118;2023-06-14T09:08:15;23.30;85.60
74368;DHT22;64991;41.090;-8.118;2023-06-14T09:13:21;23.40;85.60
74368;DHT22;64991;41.090;-8.118;2023-06-14T09:18:30;23.40;85.70
74368;DHT22;64991;41.090;-8.118;2023-06-14T09:23:38;23.30;85.50
74368;DHT22;64991;41.090;-8.118;2023-06-14T09:28:41;23.30;85.60
74368;DHT22;64991;41.090;-8.118;2023-06-14T09:33:48;23.40;85.70
74368;DHT22;64991;41.090;-8.118;2023-06-14T09:38:52;23.30;85.60
74368;DHT22;64991;41.090;-8.118;2023-06-14T09:43:57;23.30;85.70
74368;DHT22;64991;41.090;-8.118;2023-06-14T09:49:04;23.30;85.70
74368;DHT22;64991;41.090;-8.118;2023-06-14T09:54:08;23.40;85.50
74368;DHT22;64991;41.090;-8.118;2023-06-14T09:59:19;23.40;85.50
74368;DHT22;64991;41.090;-8.118;2023-06-14T10:04:25;23.40;85.50
74368;DHT22;64991;41.090;-8.118;2023-06-14T10:09:30;23.30;85.60
74368;DHT22;64991;41.090;-8.118;2023-06-14T10:14:34;23.40;85.60
74368;DHT22;64991;41.090;-8.118;2023-06-14T10:19:42;23.40;85.50
74368;DHT22;64991;41.090;-8.118;2023-06-14T10:24:49;23.40;85.40
74368;DHT22;64991;41.090;-8.118;2023-06-14T10:30:11;23.40;85.30
74368;DHT22;64991;41.090;-8.118;2023-06-14T10:35:20;23.40;85.40
74368;DHT22;64991;41.090;-8.118;2023-06-14T10:40:41;23.40;85.50
74368;DHT22;64991;41.090;-8.118;2023-06-14T10:51:25;23.30;85.60
74368;DHT22;64991;41.090;-8.118;2023-06-14T10:56:33;23.40;85.30
74368;DHT22;64991;41.090;-8.118;2023-06-14T11:01:37;23.40;85.60
74368;DHT22;64991;41.090;-8.118;2023-06-14T11:06:50;23.40;85.50
74368;DHT22;64991;41.090;-8.118;2023-06-14T11:11:57;23.40;85.60
74368;DHT22;64991;41.090;-8.118;2023-06-14T11:17:01;23.40;85.50
74368;DHT22;64991;41.090;-8.118;2023-06-14T11:22:06;23.40;85.60
74368;DHT22;64991;41.090;-8.118;2023-06-14T11:27:11;23.40;85.70
74368;DHT22;64991;41.090;-8.118;2023-06-14T11:32:14;23.40;85.70
74368;DHT22;64991;41.090;-8.118;2023-06-14T11:37:19;23.40;85.40
74368;DHT22;64991;41.090;-8.118;2023-06-14T11:42:23;23.40;85.90
74368;DHT22;64991;41.090;-8.118;2023-06-14T11:47:31;23.40;85.80
74368;DHT22;64991;41.090;-8.118;2023-06-14T11:52:36;23.40;85.60
74368;DHT22;64991;41.090;-8.118;2023-06-14T11:57:39;23.50;85.70
74368;DHT22;64991;41.090;-8.118;2023-06-14T12:02:52;23.40;86.00
74368;DHT22;64991;41.090;-8.118;2023-06-14T12:07:59;23.40;85.80
74368;DHT22;64991;41.090;-8.118;2023-06-14T12:13:04;23.40;85.90
74368;DHT22;64991;41.090;-8.118;2023-06-14T12:18:07;23.40;85.60
74368;DHT22;64991;41.090;-8.118;2023-06-14T12:23:14;23.30;85.80
74368;DHT22;64991;41.090;-8.118;2023-06-14T12:28:18;23.40;85.90
74368;DHT22;64991;41.090;-8.118;2023-06-14T12:33:22;23.40;86.00
74368;DHT22;64991;41.090;-8.118;2023-06-14T12:38:27;23.40;85.60
74368;DHT22;64991;41.090;-8.118;2023-06-14T12:43:31;23.40;85.60
74368;DHT22;64991;41.090;-8.118;2023-06-14T12:48:34;23.40;85.80
74368;DHT22;64991;41.090;-8.118;2023-06-14T12:53:39;23.40;86.00
74368;DHT22;64991;41.090;-8.118;2023-06-14T12:58:43;23.40;85.90
74368;DHT22;64991;41.090;-8.118;2023-06-14T13:03:47;23.40;86.00
74368;DHT22;64991;41.090;-8.118;2023-06-14T13:08:54;23.40;85.80
74368;DHT22;64991;41.090;-8.118;2023-06-14T13:13:59;23.40;86.00
74368;DHT22;64991;41.090;-8.118;2023-06-14T13:19:22;23.40;86.00
74368;DHT22;64991;41.090;-8.118;2023-06-14T13:24:27;23.40;86.00
74368;DHT22;64991;41.090;-8.118;2023-06-14T13:29:31;23.40;86.10
74368;DHT22;64991;41.090;-8.118;2023-06-14T13:34:38;23.40;86.00
74368;DHT22;64991;41.090;-8.118;2023-06-14T13:39:42;23.40;86.10
74368;DHT22;64991;41.090;-8.118;2023-06-14T13:44:46;23.40;85.90
74368;DHT22;64991;41.090;-8.118;2023-06-14T13:49:49;23.40;85.90
74368;DHT22;64991;41.090;-8.118;2023-06-14T13:54:55;23.50;86.10
74368;DHT22;64991;41.090;-8.118;2023-06-14T13:59:58;23.40;85.90
74368;DHT22;64991;41.090;-8.118;2023-06-14T14:05:03;23.50;86.20
74368;DHT22;64991;41.090;-8.118;2023-06-14T14:10:10;23.40;85.90
74368;DHT22;64991;41.090;-8.118;2023-06-14T14:15:15;23.50;86.10
74368;DHT22;64991;41.090;-8.118;2023-06-14T14:20:19;23.50;85.90
74368;DHT22;64991;41.090;-8.118;2023-06-14T14:25:24;23.50;86.40
74368;DHT22;64991;41.090;-8.118;2023-06-14T14:30:27;23.50;86.40
74368;DHT22;64991;41.090;-8.118;2023-06-14T14:35:31;23.50;86.10
74368;DHT22;64991;41.090;-8.118;2023-06-14T14:40:36;23.50;86.50
74368;DHT22;64991;41.090;-8.118;2023-06-14T14:45:39;23.40;86.70
74368;DHT22;64991;41.090;-8.118;2023-06-14T14:50:43;23.50;86.10
74368;DHT22;64991;41.090;-8.118;2023-06-14T14:55:48;23.50;86.40
74368;DHT22;64991;41.090;-8.118;2023-06-14T15:00:51;23.40;86.50
74368;DHT22;64991;41.090;-8.118;2023-06-14T15:05:55;23.50;86.50
74368;DHT22;64991;41.090;-8.118;2023-06-14T15:11:00;23.50;86.40
74368;DHT22;64991;41.090;-8.118;2023-06-14T15:16:21;23.40;86.40
74368;DHT22;64991;41.090;-8.118;2023-06-14T15:21:25;23.50;86.40
74368;DHT22;64991;41.090;-8.118;2023-06-14T15:26:30;23.50;86.60
74368;DHT22;64991;41.090;-8.118;2023-06-14T15:31:50;23.50;86.50
74368;DHT22;64991;41.090;-8.118;2023-06-14T15:36:56;23.50;86.30
74368;DHT22;64991;41.090;-8.118;2023-06-14T15:42:02;23.50;86.60
74368;DHT22;64991;41.090;-8.118;2023-06-14T15:47:06;23.50;86.40
74368;DHT22;64991;41.090;-8.118;2023-06-14T15:52:10;23.50;86.30
74368;DHT22;64991;41.090;-8.118;2023-06-14T15:57:15;23.50;86.40
74368;DHT22;64991;41.090;-8.118;2023-06-14T16:02:36;23.50;86.30
74368;DHT22;64991;41.090;-8.118;2023-06-14T16:07:39;23.50;86.80
74368;DHT22;64991;41.090;-8.118;2023-06-14T16:13:02;23.50;86.60
74368;DHT22;64991;41.090;-8.118;2023-06-14T16:18:06;23.50;86.70
74368;DHT22;64991;41.090;-8.118;2023-06-14T16:23:09;23.50;86.70
74368;DHT22;64991;41.090;-8.118;2023-06-14T16:28:14;23.60;86.70
74368;DHT22;64991;41.090;-8.118;2023-06-14T16:33:18;23.50;86.60
74368;DHT22;64991;41.090;-8.118;2023-06-14T16:38:21;23.50;86.70
74368;DHT22;64991;41.090;-8.118;2023-06-14T16:43:26;23.50;86.70
74368;DHT22;64991;41.090;-8.118;2023-06-14T16:48:29;23.60;86.60
74368;DHT22;64991;41.090;-8.118;2023-06-14T16:53:33;23.60;86.70
74368;DHT22;64991;41.090;-8.118;2023-06-14T16:58:38;23.50;86.70
74368;DHT22;64991;41.090;-8.118;2023-06-14T17:03:41;23.60;86.90
74368;DHT22;64991;41.090;-8.118;2023-06-14T17:14:26;23.60;86.70
74368;DHT22;64991;41.090;-8.118;2023-06-14T17:19:30;23.50;86.80
74368;DHT22;64991;41.090;-8.118;2023-06-14T17:24:33;23.60;85.90
74368;DHT22;64991;41.090;-8.118;2023-06-14T17:29:38;23.60;86.90
74368;DHT22;64991;41.090;-8.118;2023-06-14T17:34:59;23.60;86.70
74368;DHT22;64991;41.090;-8.118;2023-06-14T17:40:04;23.60;86.50
74368;DHT22;64991;41.090;-8.118;2023-06-14T17:45:28;23.60;86.80
74368;DHT22;64991;41.090;-8.118;2023-06-14T17:50:49;23.70;86.20
74368;DHT22;64991;41.090;-8.118;2023-06-14T17:56:10;23.60;87.00
74368;DHT22;64991;41.090;-8.118;2023-06-14T18:01:15;23.60;85.90
74368;DHT22;64991;41.090;-8.118;2023-06-14T18:06:21;23.60;86.70
74368;DHT22;64991;41.090;-8.118;2023-06-14T18:11:25;23.50;86.50
74368;DHT22;64991;41.090;-8.118;2023-06-14T18:16:48;23.70;86.00
74368;DHT22;64991;41.090;-8.118;2023-06-14T18:21:52;23.70;85.60
74368;DHT22;64991;41.090;-8.118;2023-06-14T18:26:55;23.60;85.80
74368;DHT22;64991;41.090;-8.118;2023-06-14T18:32:19;23.60;87.00
74368;DHT22;64991;41.090;-8.118;2023-06-14T18:37:22;23.60;85.90
74368;DHT22;64991;41.090;-8.118;2023-06-14T18:42:26;23.70;85.80
74368;DHT22;64991;41.090;-8.118;2023-06-14T18:47:31;23.60;86.50
74368;DHT22;64991;41.090;-8.118;2023-06-14T18:52:52;23.70;86.00
74368;DHT22;64991;41.090;-8.118;2023-06-14T18:58:13;23.60;86.60
74368;DHT22;64991;41.090;-8.118;2023-06-14T19:03:18;23.60;85.90
74368;DHT22;64991;41.090;-8.118;2023-06-14T19:08:39;23.70;86.00
74368;DHT22;64991;41.090;-8.118;2023-06-14T19:13:43;23.70;85.80
74368;DHT22;64991;41.090;-8.118;2023-06-14T19:18:48;23.70;85.70
74368;DHT22;64991;41.090;-8.118;2023-06-14T19:24:09;23.70;85.70
74368;DHT22;64991;41.090;-8.118;2023-06-14T19:29:14;23.70;85.80
74368;DHT22;64991;41.090;-8.118;2023-06-14T19:34:19;23.70;85.70
74368;DHT22;64991;41.090;-8.118;2023-06-14T19:39:40;23.70;85.60
74368;DHT22;64991;41.090;-8.118;2023-06-14T19:45:01;23.70;85.40
74368;DHT22;64991;41.090;-8.118;2023-06-14T19:50:07;23.70;85.40
74368;DHT22;64991;41.090;-8.118;2023-06-14T19:55:28;23.70;85.70
74368;DHT22;64991;41.090;-8.118;2023-06-14T20:00:49;23.70;85.50
74368;DHT22;64991;41.090;-8.118;2023-06-14T20:05:54;23.70;85.60
74368;DHT22;64991;41.090;-8.118;2023-06-14T20:10:57;23.70;85.70
74368;DHT22;64991;41.090;-8.118;2023-06-14T20:16:01;23.70;85.60
74368;DHT22;64991;41.090;-8.118;2023-06-14T20:21:06;23.70;85.60
74368;DHT22;64991;41.090;-8.118;2023-06-14T20:26:10;23.80;85.50
74368;DHT22;64991;41.090;-8.118;2023-06-14T20:31:13;23.70;86.00
74368;DHT22;64991;41.090;-8.118;2023-06-14T20:36:21;23.70;85.80
74368;DHT22;64991;41.090;-8.118;2023-06-14T20:41:25;23.70;85.60
74368;DHT22;64991;41.090;-8.118;2023-06-14T20:46:28;23.70;85.60
74368;DHT22;64991;41.090;-8.118;2023-06-14T20:51:35;23.70;85.80
74368;DHT22;64991;41.090;-8.118;2023-06-14T20:56:39;23.70;85.70
74368;DHT22;64991;41.090;-8.118;2023-06-14T21:01:42;23.70;85.80
74368;DHT22;64991;41.090;-8.118;2023-06-14T21:06:47;23.70;85.70
74368;DHT22;64991;41.090;-8.118;2023-06-14T21:11:51;23.70;85.70
74368;DHT22;64991;41.090;-8.118;2023-06-14T21:16:54;23.70;85.50
74368;DHT22;64991;41.090;-8.118;2023-06-14T21:21:59;23.70;85.90
74368;DHT22;64991;41.090;-8.118;2023-06-14T21:27:03;23.80;85.90
74368;DHT22;64991;41.090;-8.118;2023-06-14T21:32:07;23.70;85.80
74368;DHT22;64991;41.090;-8.118;2023-06-14T21:37:14;23.70;85.60
74368;DHT22;64991;41.090;-8.118;2023-06-14T21:42:17;23.80;85.60
74368;DHT22;64991;41.090;-8.118;2023-06-14T21:47:21;23.70;85.60
74368;DHT22;64991;41.090;-8.118;2023-06-14T21:52:25;23.80;85.50
74368;DHT22;64991;41.090;-8.118;2023-06-14T21:57:29;23.70;85.30
74368;DHT22;64991;41.090;-8.118;2023-06-14T22:02:32;23.70;85.40
74368;DHT22;64991;41.090;-8.118;2023-06-14T22:07:37;23.70;85.40
74368;DHT22;64991;41.090;-8.118;2023-06-14T22:12:41;23.70;85.60
74368;DHT22;64991;41.090;-8.118;2023-06-14T22:17:45;23.80;85.40
74368;DHT22;64991;41.090;-8.118;2023-06-14T22:22:50;23.80;85.60
74368;DHT22;64991;41.090;-8.118;2023-06-14T22:27:56;23.70;85.70
74368;DHT22;64991;41.090;-8.118;2023-06-14T22:33:01;23.70;85.40
74368;DHT22;64991;41.090;-8.118;2023-06-14T22:38:06;23.80;85.30
74368;DHT22;64991;41.090;-8.118;2023-06-14T22:43:11;23.80;85.60
74368;DHT22;64991;41.090;-8.118;2023-06-14T22:48:15;23.80;85.40
74368;DHT22;64991;41.090;-8.118;2023-06-14T22:53:20;23.80;85.30
74368;DHT22;64991;41.090;-8.118;2023-06-14T22:58:23;23.80;85.50
74368;DHT22;64991;41.090;-8.118;2023-06-14T23:03:28;23.80;85.30
74368;DHT22;64991;41.090;-8.118;2023-06-14T23:08:33;23.80;85.30
74368;DHT22;64991;41.090;-8.118;2023-06-14T23:13:39;23.70;85.40
74368;DHT22;64991;41.090;-8.118;2023-06-14T23:18:43;23.80;85.00
74368;DHT22;64991;41.090;-8.118;2023-06-14T23:23:49;23.80;85.40
74368;DHT22;64991;41.090;-8.118;2023-06-14T23:28:56;23.80;85.40
74368;DHT22;64991;41.090;-8.118;2023-06-14T23:33:59;23.80;85.40
74368;DHT22;64991;41.090;-8.118;2023-06-14T23:39:04;23.80;85.30
74368;DHT22;64991;41.090;-8.118;2023-06-14T23:44:08;23.70;85.30
74368;DHT22;64991;41.090;-8.118;2023-06-14T23:49:12;23.70;85.50
74368;DHT22;64991;41.090;-8.118;2023-06-14T23:54:17;23.80;85.40
74368;DHT22;64991;41.090;-8.118;2023-06-14T23:59:20;23.70;85.20
